Arlington, Oregon
Current Conditions -  °F | °C
As of 4:53 AM on Thursday 30 Oct 2014 (Local Time) from KHRI Reporting Station
Overcast Overcast  
Wind Chill: 53°   Ceiling: 9500
Heat Index: 53°   Visibility: 10mi
Dew Point: 48°   Wind: 5mph
Humidity: 83%   Direction: 50°NE
Pressure: 30.05"   Gusts: NA
Location:  45.72°N, 120.2°W
Report Text: KHRI 301153Z AUTO 05004KT 10SM OVC095 12/09 A3005 RMK AO2 SLP174 7//// T01170089 10128 20117 55011
Loading
Personal Weather Stations






























Interactive Weather Map New forecast layout! Learn more

10-Day Weather Forecast

Advertisements
Track Severe Weather on mobile